Aviation Digital Data Service (ADDS)

Output produced by METARs form (0428 UTC 26 May 2018)
found at http://www.aviationweather.gov/adds/metars/
 
UNAA 260400Z 19003MPS 9999 -SHRA FEW007 BKN022CB 12/10 Q1012 R20/290055 NOSIG RMK QFE737
TAF UNAA 260152Z 2603/2703 17003G10MPS 9000 -SHRA SCT020CB 
     TEMPO 2603/2624 3100 -SHRA
       
URWA 260400Z 02009G15MPS CAVOK 17/07 Q1009 R09/010070 NOSIG RMK QFE759/1012
USCC 260400Z 36008MPS 4500 -SHRA BKN013CB 04/02 Q1014 R27/290050 TEMPO 36018MPS RMK QFE740
TAF USCC 260200Z 2603/2703 01010MPS 9999 BKN020CB 
     TEMPO 2603/2618 01015MPS 3100 -SHRA BKN011CB
       
UNBB 260400Z 23009MPS CAVOK 17/10 Q1009 R24/290151 NOSIG RMK QFE735
TAF UNBB 260200Z 2603/2703 21007G13MPS 9999 BKN011CB 
     TEMPO 2603/2606 3100 -SHRA BR SCT002 BKN011CB 
     PROB40 
     TEMPO 2603/2606 -TSRA 
     TEMPO 2606/2703 18012G17MPS
       
UWKE 260400Z 02009G14MPS CAVOK 05/M06 Q1025 R03/090070 NOSIG RMK QFE752/1002
TAF UWKE 260145Z 2603/2703 36006G12MPS 9999 BKN015 
     TEMPO 2603/2606 01009G14MPS 3100 BR BKN003 
     TEMPO 2606/2615 02009G16MPS
       
UUOB 260400Z 07008MPS CAVOK 12/03 Q1026 R11/090060 NOSIG
USPP 260400Z 02007MPS 9999 SCT043 06/M05 Q1025 R03/090060 TEMPO 02016MPS RMK QFE758
TAF USPP 260158Z 2603/2703 36006MPS CAVOK 
     TEMPO 2603/2610 35011MPS 
     BECMG 2615/2617 27005MPS
       
UIBB 260400Z 30002MPS 9999 NSC 13/M03 Q1010 R30/60D NOSIG RMK QFE714/0953
TAF AMD UIBB 260203Z 2602/2703 30006G11MPS 9999 BKN020CB 
     TEMPO 2603/2612 22003G08MPS
       
UUBP 260400Z 07005MPS CAVOK 12/05 Q1030 R34/CLRD70 NOSIG RMK QFE755/1006
UWKS 260400Z 05004MPS CAVOK 06/M04 Q1031 R06/010060 NOSIG RMK QFE758
UUOO 260400Z 07005MPS CAVOK 11/01 Q1029 R12/090070 NOSIG RMK QFE758
UEEE 260400Z 31006MPS 260V340 CAVOK 24/M02 Q1010 R23L/09//60 NOSIG RMK QFE749
TAF UEEE 260200Z 2603/2709 31007G13MPS CAVOK
       
UUDD 260400Z 12002MPS 060V170 CAVOK 12/04 Q1034 R88/010095 NOSIG
TAF UUDD 260157Z 2603/2709 05003MPS CAVOK TX20/2613Z TN09/2702Z 
     BECMG 2622/2624 25005MPS
       
URWW 260400Z 06013G18MPS CAVOK 12/01 Q1020 R06/010070 TEMPO 02018G23MPS
UHBB 260400Z 10008MPS 9999 FEW010 BKN020CB 12/09 Q1013 R36/290250 NOSIG RMK QFE742/0990
TAF UHBB 260150Z 2603/2703 09005MPS 9999 BKN010 BKN020CB 
     TEMPO 2603/2608 10008MPS 2100 -SHRA BKN007 BKN015CB 
     BECMG 2608/2610 19003MPS 
     FM261200 09003MPS 5000 BR NSC 
     TEMPO 2612/2624 2100 BR SCT007
       
UIII 260400Z 29005MPS 9999 -SHRA BKN023CB 08/05 Q1014 R30/290150 NOSIG RMK QFE716/0955
TAF UIII 260200Z 2603/2703 29008MPS 9999 BKN011CB 
     TEMPO 2603/2606 -SHRA BKN004CB 
     TEMPO 2606/2613 -TSRA 
     BECMG 2613/2614 30003MPS
       
UIAA 260400Z 28005MPS 9999 NSC 17/05 Q1007 R29/70D NOSIG RMK QFE697/0929
TAF UIAA 260200Z 2603/2703 29008G17MPS 9999 BKN030CB 
     TEMPO 2603/2606 23003G09MPS 
     TEMPO 2606/2618 3100 -TSRA BKN014CB
       
UWKD 260400Z 04008G13MPS CAVOK 07/M05 Q1029 R11/70D NOSIG RMK QFE761/1015
TAF AMD UWKD 260240Z 2603/2703 01007G12MPS 9999 SCT020 TX15/2612Z TN05/2603Z 
     TEMPO 2603/2612 02010G15MPS 
     BECMG 2614/2616 36005MPS 
     BECMG 2618/2620 25005MPS
       
UNEE 260400Z VRB01MPS 9999 OVC006 11/10 Q1010 R23/290155 NOSIG RMK QFE734
TAF UNEE 260200Z 2603/2703 VRB01MPS 1500 SHRA BR BKN004 BKN007CB 
     TEMPO 2603/2606 0300 FG BKN002 BKN010CB 
     FM260600 22003G08MPS 5000 -SHRA BR SCT005 BKN013CB 
     TEMPO 2610/2703 23009G14MPS 3100 -TSRA BKN011CB
       
USCC 260400Z 36008MPS 4500 -SHRA BKN013CB 04/02 Q1014 R27/290050 TEMPO 36018MPS RMK QFE740
TAF USCC 260200Z 2603/2703 01010MPS 9999 BKN020CB 
     TEMPO 2603/2618 01015MPS 3100 -SHRA BKN011CB
       
USCM 260400Z 02012MPS 9999 BKN016CB 06/01 Q1012 R36/190257 TEMPO 36017MPS RMK QFE721
USHH 260400Z 04003MPS 350V080 9999 SCT043 03/M08 Q1019 R24/010060 NOSIG RMK QFE761
TAF USHH 260156Z 2603/2703 35003G09MPS 9999 BKN020 
     TEMPO 2603/2617 03005MPS SCT015CB 
     BECMG 2618/2620 25003G09MPS 
     TEMPO 2618/2624 3100 BR BKN011
       
USNN 260400Z 35004MPS 320V030 9999 SCT038CB 02/M06 Q1017 R03/0///65 NOSIG RMK QFE759
TAF USNN 260200Z 2603/2703 35003MPS CAVOK
       
USPP 260400Z 02007MPS 9999 SCT043 06/M05 Q1025 R03/090060 TEMPO 02016MPS RMK QFE758
TAF USPP 260158Z 2603/2703 36006MPS CAVOK 
     TEMPO 2603/2610 35011MPS 
     BECMG 2615/2617 27005MPS
       
USRR 260400Z 02005MPS 9999 BKN040 02/M07 Q1018 R25/CLRD60 NOSIG RMK QFE758
TAF USRR 260155Z 2603/2703 34005G10MPS 9999 SCT020
       
USSS 260400Z 36007G13MPS 320V030 9999 SCT035 06/M02 Q1018 R26R/010060 R26L/010060 NOSIG RMK QFE742/0990
TAF USSS 260158Z 2603/2703 35007MPS 9999 SCT030 
     TEMPO 2603/2615 36017MPS BKN015 SCT020CB 
     FM261800 29003MPS 5000 BR SCT015
       
USTR 260400Z 04007MPS 9999 -SHRA BKN009 OVC016CB 04/02 Q1015 R03/290060 TEMPO 2000 SHRA BR VV005 RMK QFE751/1001
TAF USTR 260158Z 2603/2703 03009G14MPS 3100 -SHRA BKN007 BKN015CB 
     TEMPO 2603/2612 01015MPS 2100 -SHRA SCT005 BKN015CB 
     FM261200 36007MPS 9999 BKN020CB
       
UHSS 260400Z 29006MPS 9999 BKN025CB 09/05 Q1007 R01/290060 NOSIG RMK MT OBSC QFE754/1006
TAF UHSS 260200Z 2603/2709 34005G10MPS 9999 BKN017CB 
     TEMPO 2603/2608 -SHRA 
     BECMG 2608/2609 31003MPS BKN030CB
       
UMKK 260400Z 08006MPS 9999 -SHRA BKN041CB 15/14 Q1024 R06/29//55 NOSIG RMK QFE767/1022
TAF UMKK 260153Z 2603/2703 08005MPS 5000 -SHRA BKN011 BKN020CB 
     TEMPO 2603/2624 3100 -SHRA BR BKN007 BKN012CB 
     BECMG 2609/2611 VRB01MPS 
     PROB40 
     TEMPO 2612/2621 -TSRA BKN015CB
       
UHWW 260400Z 22006MPS 9999 NSC 17/04 Q1012 R25L/0///70 NOSIG RMK QFE758
TAF AMD UHWW 260336Z 2604/2703 24003MPS 9999 SCT026CB 
     TEMPO 2604/2610 24011MPS 5000 -SHRA BKN015CB 
     FM261000 18003MPS 3500 -SHRA BR BKN012CB
       
USSS 260400Z 36007G13MPS 320V030 9999 SCT035 06/M02 Q1018 R26R/010060 R26L/010060 NOSIG RMK QFE742/0990
TAF USSS 260158Z 2603/2703 35007MPS 9999 SCT030 
     TEMPO 2603/2615 36017MPS BKN015 SCT020CB 
     FM261800 29003MPS 5000 BR SCT015
       
UNKL 260400Z 22004MPS 200V290 9999 SCT033 13/05 Q1010 R29/CLRD65 NOSIG RMK QFE732
TAF UNKL 260158Z 2603/2703 21003G08MPS 9999 -SHRA BKN015CB 
     TEMPO 2603/2612 21008G13MPS 4000 -SHRA FEW007 BKN015CB 
     TEMPO 2612/2624 3100 -SHRA FEW004 BKN013CB
       
UWWW 260400Z 36009MPS 9999 FEW033 07/01 Q1024 R33/CLRD60 NOSIG RMK QFE757/1010
TAF UWWW 260200Z 2603/2703 01007G13MPS 9999 SCT030 TX13/2610Z TN06/2603Z 
     TEMPO 2603/2616 03012G18MPS 
     TEMPO 2616/2619 33003G09MPS 
     BECMG 2619/2621 29003G09MPS 
     TEMPO 2621/2703 25003G09MPS
       
USCM 260400Z 02012MPS 9999 BKN016CB 06/01 Q1012 R36/190257 TEMPO 36017MPS RMK QFE721
URMM 260400Z 00000MPS 9999 BKN048CB 19/17 Q1013 R30/090070 NOSIG RMK QFE732/0976
TAF URMM 260158Z 2603/2703 27003G08MPS 9999 BKN030 TX23/2611Z TN12/2702Z 
     TEMPO 2603/2618 07005G14MPS 3100 -TSRAGR BKN011 BKN020CB
       
USCC 260400Z 36008MPS 4500 -SHRA BKN013CB 04/02 Q1014 R27/290050 TEMPO 36018MPS RMK QFE740
TAF USCC 260200Z 2603/2703 01010MPS 9999 BKN020CB 
     TEMPO 2603/2618 01015MPS 3100 -SHRA BKN011CB
       
USCM 260400Z 02012MPS 9999 BKN016CB 06/01 Q1012 R36/190257 TEMPO 36017MPS RMK QFE721
USHH 260400Z 04003MPS 350V080 9999 SCT043 03/M08 Q1019 R24/010060 NOSIG RMK QFE761
TAF USHH 260156Z 2603/2703 35003G09MPS 9999 BKN020 
     TEMPO 2603/2617 03005MPS SCT015CB 
     BECMG 2618/2620 25003G09MPS 
     TEMPO 2618/2624 3100 BR BKN011
       
USNN 260400Z 35004MPS 320V030 9999 SCT038CB 02/M06 Q1017 R03/0///65 NOSIG RMK QFE759
TAF USNN 260200Z 2603/2703 35003MPS CAVOK
       
USPP 260400Z 02007MPS 9999 SCT043 06/M05 Q1025 R03/090060 TEMPO 02016MPS RMK QFE758
TAF USPP 260158Z 2603/2703 36006MPS CAVOK 
     TEMPO 2603/2610 35011MPS 
     BECMG 2615/2617 27005MPS
       
USRR 260400Z 02005MPS 9999 BKN040 02/M07 Q1018 R25/CLRD60 NOSIG RMK QFE758
TAF USRR 260155Z 2603/2703 34005G10MPS 9999 SCT020
       
USSS 260400Z 36007G13MPS 320V030 9999 SCT035 06/M02 Q1018 R26R/010060 R26L/010060 NOSIG RMK QFE742/0990
TAF USSS 260158Z 2603/2703 35007MPS 9999 SCT030 
     TEMPO 2603/2615 36017MPS BKN015 SCT020CB 
     FM261800 29003MPS 5000 BR SCT015
       
USTR 260400Z 04007MPS 9999 -SHRA BKN009 OVC016CB 04/02 Q1015 R03/290060 TEMPO 2000 SHRA BR VV005 RMK QFE751/1001
TAF USTR 260158Z 2603/2703 03009G14MPS 3100 -SHRA BKN007 BKN015CB 
     TEMPO 2603/2612 01015MPS 2100 -SHRA SCT005 BKN015CB 
     FM261200 36007MPS 9999 BKN020CB
       
UIUU 260400Z 32005G10MPS 270V010 9999 BKN040CB 11/00 Q1013 R26/60D NOSIG RMK QFE716/0954
TAF UIUU 260200Z 2603/2703 33006G12MPS 9999 BKN030CB 
     TEMPO 2603/2612 26003G08MPS 4000 -SHRA BKN015CB
       
ULMM 260400Z 35002MPS CAVOK 11/00 Q1019 R31/090070 NOSIG RMK QFE757
TAF ULMM 260155Z 2603/2703 29005G10MPS 9999 SCT015 
     TEMPO 2603/2606 32007G14MPS 
     TEMPO 2606/2623 31011G19MPS 4000 -SHRA BKN013CB 
     TEMPO 2623/2703 31007G14MPS
       
URMN 260400Z 22003MPS 9999 -SHRA BKN030CB 18/15 Q1013 R24/////// NOSIG RMK QFE723
USNN 260400Z 35004MPS 320V030 9999 SCT038CB 02/M06 Q1017 R03/0///65 NOSIG RMK QFE759
TAF USNN 260200Z 2603/2703 35003MPS CAVOK
       
UHHH 260400Z 06003MPS 9999 SCT036 16/03 Q1012 R05R/090060 NOSIG RMK QFE753/1004
TAF UHHH 260145Z 2603/2709 01003MPS 9999 SCT030
       
UWOO 260400Z 01011MPS 9999 SCT047 09/04 Q1012 R26/120063 NOSIG RMK QFE748/0998
TAF UWOO 260145Z 2603/2703 35012MPS 9999 BKN040 TX16/2612Z TN03/2701Z 
     TEMPO 2603/2615 01018MPS SCT020CB 
     BECMG 2618/2620 36006G12MPS
       
UWOR 260400Z 02009MPS 9999 -SHRA OVC005CB 07/06 Q1008 R25/190060 NOSIG RMK QBB160 QFE732/0977
URKK 260400Z 03004MPS 9999 FEW013 20/16 Q1012 R05R/CLRD70 TEMPO SCT007 RMK QFE756
TAF URKK 260157Z 2603/2703 04005G10MPS 9999 SCT040 
     BECMG 2607/2609 04008G17MPS 
     TEMPO 2612/2703 06013G21MPS
       
ULOO 260400Z AUTO 13002MPS 090V150 9000 // NCD 13/08 Q1031 RMK QFE769
ULLI 260400Z 00000MPS CAVOK 16/07 Q1031 R88/090060 NOSIG
TAF ULLI 260200Z 2603/2703 22003MPS CAVOK 
     TEMPO 2603/2606 15002MPS 
     BECMG 2606/2608 26003G08MPS 
     TEMPO 2609/2616 30003G09MPS
       
USTR 260400Z 04007MPS 9999 -SHRA BKN009 OVC016CB 04/02 Q1015 R03/290060 TEMPO 2000 SHRA BR VV005 RMK QFE751/1001
TAF USTR 260158Z 2603/2703 03009G14MPS 3100 -SHRA BKN007 BKN015CB 
     TEMPO 2603/2612 01015MPS 2100 -SHRA SCT005 BKN015CB 
     FM261200 36007MPS 9999 BKN020CB
       
UUEE 260400Z 08002MPS 040V120 CAVOK 12/05 Q1034 R06C/CLRD62 R06R/CLRD62 NOSIG
TAF UUEE 260156Z 2603/2703 VRB01MPS CAVOK TX20/2613Z TN09/2701Z 
     BECMG 2606/2608 08005MPS 
     BECMG 2614/2618 24003MPS
       
URMT 260400Z 06008MPS 9999 FEW020 18/14 Q1014 R07/010070 TEMPO 02007G12MPS RMK QFE720
URSS 260400Z 08004MPS 9999 FEW009 BKN130 21/16 Q1011 R06/090070 R02/090070 NOSIG RMK R02/04002MPS MT OBSC QFE757
TAF URSS 260156Z 2603/2703 05005MPS 9999 SCT020 BKN100 
     BECMG 2606/2608 24005G10MPS SCT030CB BKN100 
     BECMG 2610/2612 27006G11MPS 
     BECMG 2618/2619 05006MPS BKN011 SCT020CB BKN100
       
UHMM 260400Z 13006MPS 9999 NSC 12/03 Q1008 R10/70D NOSIG RMK QFE741
TAF UHMM 260200Z 2603/2709 11003G09MPS 9999 SCT030CB OVC070 
     TEMPO 2603/2610 20003MPS -SHRA BKN015CB 
     TEMPO 2610/2623 3100 -SHRA BR FEW006 OVC011CB
       
UWGG 260400Z 05002MPS 360V110 CAVOK 10/M03 Q1034 R36L/090070 NOSIG
TAF UWGG 260145Z 2603/2703 30003MPS 6000 SCT020 TX18/2613Z TN05/2603Z
       
USRR 260400Z 02005MPS 9999 BKN040 02/M07 Q1018 R25/CLRD60 NOSIG RMK QFE758
TAF USRR 260155Z 2603/2703 34005G10MPS 9999 SCT020
       
UUYY 260400Z 19003MPS CAVOK 07/M01 Q1027 R18/61D NOSIG RMK QFE761/1015
TAF UUYY 260200Z 2603/2703 23003G08MPS 9999 BKN020 
     BECMG 2608/2610 26005G11MPS 
     TEMPO 2612/2703 4000 -SHRA BKN015CB
       
ULAA 260400Z 25003MPS 190V300 9999 FEW040 16/05 Q1020 R26/CLRD70 NOSIG RMK QFE764/1018
TAF ULAA 252300Z 2600/2624 18003MPS 9999 SCT015 BKN070 
     TEMPO 2600/2606 16003G08MPS 3100 -RA BR BKN011 
     BECMG 2606/2608 28006MPS BKN012 
     TEMPO 2608/2618 30006G13MPS 4000 -SHRA BKN011CB 
     BECMG 2618/2620 34006MPS BKN011
       
UEEE 260400Z 31006MPS 260V340 CAVOK 24/M02 Q1010 R23L/09//60 NOSIG RMK QFE749
TAF UEEE 260200Z 2603/2709 31007G13MPS CAVOK
       
UNNT 260400Z 04004MPS 9999 -RA BKN005 OVC033 07/06 Q1011 R07/290160 R34/290160 NOSIG RMK QBB170 QFE748/0997
TAF UNNT 260200Z 2603/2703 36005G10MPS 3000 -RA BR BKN005 
     FM260600 02005G10MPS 9999 BKN011CB 
     TEMPO 2606/2703 3100 -SHRA BKN005 BKN011CB 
     PROB40 
     TEMPO 2606/2703 -TSRA
       
UNOO 260400Z 07008MPS 8000 -SHRA BKN008 BKN026CB 06/05 Q1006 R07/250345 NOSIG RMK QFE746
TAF UNOO 260145Z 2603/2703 06012MPS 4000 -SHRA BKN007 BKN020CB 
     TEMPO 2603/2606 1500 SHRA BR VV005 
     TEMPO 2606/2615 05017MPS 2100 -SHRA
       
UWSS 260400Z 02006G11MPS CAVOK 09/M01 Q1024 R30/010095 NOSIG RMK QFE755
UUDL 260400Z 22002MPS 170V250 CAVOK 11/04 Q1034 R23/010060 NOSIG RMK QFE767
TAF UUDL 260200Z 2603/2703 23003MPS 8000 SCT040
       
UWUU 260400Z 36008MPS 330V030 CAVOK 08/M01 Q1019 R32L/0///60 NOSIG RMK QFE752/1002
TAF UWUU 260152Z 2603/2703 35007G12MPS 9999 SCT030 
     TEMPO 2603/2618 02009G14MPS 
     TEMPO 2618/2703 29005G10MPS 3100 BR BKN011
       
UHMA 260400Z 30003MPS CAVOK 03/00 Q1015 RMK END R01/32002MPS QFE757/1009
TAF UHMA 260148Z 2603/2703 22003G08MPS 9999 SCT030 
     TEMPO 2612/2621 2000 BR SCT007 BKN020
       
URML 260400Z 31008MPS 9999 NSC 28/15 Q1008 R32/01//70 NOSIG RMK QFE755/1007
URKA 260400Z 05003MPS 030V100 CAVOK 21/19 Q1011 R04/010070 RMK QFE755/1006
TAF URKA 260155Z 2603/2703 04005G11MPS 9999 SCT030 
     TEMPO 2603/2606 03007G15MPS 
     BECMG 2606/2608 04009G18MPS
       
UUWW 260400Z 10003MPS CAVOK 12/03 Q1034 R06/000070 NOSIG
TAF UUWW 260150Z 2603/2703 07003MPS CAVOK TX20/2612Z TN08/2702Z
       
UWLW 260400Z 03010MPS 8000 SCT040 09/01 Q1027 R02/CLRD60 TEMPO 01015MPS RMK QFE763
TAF UWLW 260145Z 2603/2703 36009G14MPS 8000 SCT033 2603/2618 02016MPS
       
UEEE 260400Z 31006MPS 260V340 CAVOK 24/M02 Q1010 R23L/09//60 NOSIG RMK QFE749
TAF UEEE 260200Z 2603/2709 31007G13MPS CAVOK
       
UHPP 260400Z 19003MPS 160V220 9999 OVC012 06/03 Q1016 R16R/CLRD70 NOSIG RMK MT OBSC QFE759/1012
TAF UHPP 260148Z 2603/2709 16003G12MPS 9999 BKN011 OVC020CB 
     TEMPO 2603/2607 3100 -DZ BR VV006 
     FM260700 16003G12MPS 3100 -SHRA BR BKN011 OVC020CB 
     TEMPO 2607/2624 0900 SHRA FG VV002 
     TEMPO 2700/2709 11003G10MPS 1000 SHRA BR VV003